sensor_id;sensor_type;location;lat;lon;timestamp;P1;durP1;ratioP1;P2;durP2;ratioP2
31112;SDS011;17763;48.730;9.136;2024-03-02T00:00:26;14.98;;;11.20;;
31112;SDS011;17763;48.730;9.136;2024-03-02T00:02:52;14.35;;;11.30;;
31112;SDS011;17763;48.730;9.136;2024-03-02T00:05:18;19.90;;;11.77;;
31112;SDS011;17763;48.730;9.136;2024-03-02T00:07:46;12.93;;;11.00;;
31112;SDS011;17763;48.730;9.136;2024-03-02T00:10:19;14.40;;;11.25;;
31112;SDS011;17763;48.730;9.136;2024-03-02T00:12:48;16.58;;;12.35;;
31112;SDS011;17763;48.730;9.136;2024-03-02T00:17:55;15.13;;;11.88;;
31112;SDS011;17763;48.730;9.136;2024-03-02T00:20:22;13.60;;;10.88;;
31112;SDS011;17763;48.730;9.136;2024-03-02T00:25:27;15.55;;;12.43;;
31112;SDS011;17763;48.730;9.136;2024-03-02T00:28:10;16.30;;;11.45;;
31112;SDS011;17763;48.730;9.136;2024-03-02T00:30:58;13.63;;;11.20;;
31112;SDS011;17763;48.730;9.136;2024-03-02T00:36:05;17.85;;;12.25;;
31112;SDS011;17763;48.730;9.136;2024-03-02T00:38:42;14.23;;;11.85;;
31112;SDS011;17763;48.730;9.136;2024-03-02T00:41:24;16.55;;;11.68;;
31112;SDS011;17763;48.730;9.136;2024-03-02T00:46:26;15.20;;;11.80;;
31112;SDS011;17763;48.730;9.136;2024-03-02T00:48:59;16.10;;;12.45;;
31112;SDS011;17763;48.730;9.136;2024-03-02T00:51:29;13.88;;;10.75;;
31112;SDS011;17763;48.730;9.136;2024-03-02T00:53:57;15.90;;;11.15;;
31112;SDS011;17763;48.730;9.136;2024-03-02T00:56:25;15.05;;;11.23;;
31112;SDS011;17763;48.730;9.136;2024-03-02T00:58:51;15.65;;;11.60;;
31112;SDS011;17763;48.730;9.136;2024-03-02T01:01:17;13.82;;;11.43;;
31112;SDS011;17763;48.730;9.136;2024-03-02T01:03:44;15.57;;;11.60;;
31112;SDS011;17763;48.730;9.136;2024-03-02T01:06:11;15.98;;;11.73;;
31112;SDS011;17763;48.730;9.136;2024-03-02T01:08:37;17.40;;;11.48;;
31112;SDS011;17763;48.730;9.136;2024-03-02T01:11:03;14.70;;;11.88;;
31112;SDS011;17763;48.730;9.136;2024-03-02T01:13:32;16.40;;;11.23;;
31112;SDS011;17763;48.730;9.136;2024-03-02T01:15:58;15.60;;;12.15;;
31112;SDS011;17763;48.730;9.136;2024-03-02T01:18:26;14.43;;;10.85;;
31112;SDS011;17763;48.730;9.136;2024-03-02T01:20:52;14.90;;;11.48;;
31112;SDS011;17763;48.730;9.136;2024-03-02T01:23:20;15.68;;;11.07;;
31112;SDS011;17763;48.730;9.136;2024-03-02T01:25:47;15.02;;;10.70;;
31112;SDS011;17763;48.730;9.136;2024-03-02T01:28:13;13.20;;;10.70;;
31112;SDS011;17763;48.730;9.136;2024-03-02T01:30:42;12.73;;;10.63;;
31112;SDS011;17763;48.730;9.136;2024-03-02T01:33:08;15.20;;;10.73;;
31112;SDS011;17763;48.730;9.136;2024-03-02T01:35:36;14.35;;;11.48;;
31112;SDS011;17763;48.730;9.136;2024-03-02T01:38:04;15.88;;;11.30;;
31112;SDS011;17763;48.730;9.136;2024-03-02T01:40:34;13.18;;;10.13;;
31112;SDS011;17763;48.730;9.136;2024-03-02T01:43:00;12.45;;;9.65;;
31112;SDS011;17763;48.730;9.136;2024-03-02T01:45:25;13.95;;;11.05;;
31112;SDS011;17763;48.730;9.136;2024-03-02T01:47:53;15.23;;;11.30;;
31112;SDS011;17763;48.730;9.136;2024-03-02T01:50:26;13.10;;;10.82;;
31112;SDS011;17763;48.730;9.136;2024-03-02T01:52:53;13.00;;;10.57;;
31112;SDS011;17763;48.730;9.136;2024-03-02T01:55:22;14.05;;;11.50;;
31112;SDS011;17763;48.730;9.136;2024-03-02T01:57:48;13.73;;;11.13;;
31112;SDS011;17763;48.730;9.136;2024-03-02T02:00:16;14.90;;;10.27;;
31112;SDS011;17763;48.730;9.136;2024-03-02T02:02:42;14.57;;;10.45;;
31112;SDS011;17763;48.730;9.136;2024-03-02T02:05:11;15.00;;;10.63;;
31112;SDS011;17763;48.730;9.136;2024-03-02T02:07:40;19.83;;;12.15;;
31112;SDS011;17763;48.730;9.136;2024-03-02T02:10:07;17.30;;;12.20;;
31112;SDS011;17763;48.730;9.136;2024-03-02T02:12:33;16.80;;;11.80;;
31112;SDS011;17763;48.730;9.136;2024-03-02T02:14:58;15.30;;;11.32;;
31112;SDS011;17763;48.730;9.136;2024-03-02T02:17:24;15.68;;;11.40;;
31112;SDS011;17763;48.730;9.136;2024-03-02T02:19:50;16.90;;;11.80;;
31112;SDS011;17763;48.730;9.136;2024-03-02T02:22:15;15.80;;;11.27;;
31112;SDS011;17763;48.730;9.136;2024-03-02T02:24:41;18.95;;;12.60;;
31112;SDS011;17763;48.730;9.136;2024-03-02T02:27:07;17.58;;;12.20;;
31112;SDS011;17763;48.730;9.136;2024-03-02T02:29:35;17.02;;;12.43;;
31112;SDS011;17763;48.730;9.136;2024-03-02T02:32:00;15.55;;;11.70;;
31112;SDS011;17763;48.730;9.136;2024-03-02T02:34:26;18.30;;;12.93;;
31112;SDS011;17763;48.730;9.136;2024-03-02T02:36:54;16.80;;;11.75;;
31112;SDS011;17763;48.730;9.136;2024-03-02T02:39:20;23.77;;;12.52;;
31112;SDS011;17763;48.730;9.136;2024-03-02T02:41:50;19.20;;;12.20;;
31112;SDS011;17763;48.730;9.136;2024-03-02T02:44:18;17.10;;;14.03;;
31112;SDS011;17763;48.730;9.136;2024-03-02T02:46:43;19.48;;;13.10;;
31112;SDS011;17763;48.730;9.136;2024-03-02T02:49:11;18.30;;;12.48;;
31112;SDS011;17763;48.730;9.136;2024-03-02T02:51:37;19.25;;;14.13;;
31112;SDS011;17763;48.730;9.136;2024-03-02T02:54:03;16.25;;;12.32;;
31112;SDS011;17763;48.730;9.136;2024-03-02T02:56:30;22.35;;;15.00;;
31112;SDS011;17763;48.730;9.136;2024-03-02T02:58:56;20.40;;;14.45;;
31112;SDS011;17763;48.730;9.136;2024-03-02T03:01:22;18.65;;;12.73;;
31112;SDS011;17763;48.730;9.136;2024-03-02T03:03:50;18.25;;;12.50;;
31112;SDS011;17763;48.730;9.136;2024-03-02T03:06:16;20.60;;;13.35;;
31112;SDS011;17763;48.730;9.136;2024-03-02T03:08:41;19.20;;;13.77;;
31112;SDS011;17763;48.730;9.136;2024-03-02T03:11:07;19.45;;;13.98;;
31112;SDS011;17763;48.730;9.136;2024-03-02T03:13:34;18.13;;;13.02;;
31112;SDS011;17763;48.730;9.136;2024-03-02T03:16:04;19.88;;;13.15;;
31112;SDS011;17763;48.730;9.136;2024-03-02T03:18:32;20.70;;;13.90;;
31112;SDS011;17763;48.730;9.136;2024-03-02T03:20:58;21.58;;;14.00;;
31112;SDS011;17763;48.730;9.136;2024-03-02T03:23:23;20.30;;;14.00;;
31112;SDS011;17763;48.730;9.136;2024-03-02T03:25:53;25.60;;;14.57;;
31112;SDS011;17763;48.730;9.136;2024-03-02T03:28:19;19.90;;;14.25;;
31112;SDS011;17763;48.730;9.136;2024-03-02T03:30:44;19.73;;;13.70;;
31112;SDS011;17763;48.730;9.136;2024-03-02T03:33:10;20.35;;;12.93;;
31112;SDS011;17763;48.730;9.136;2024-03-02T03:35:36;22.17;;;14.40;;
31112;SDS011;17763;48.730;9.136;2024-03-02T03:38:03;23.42;;;14.48;;
31112;SDS011;17763;48.730;9.136;2024-03-02T03:40:32;21.05;;;14.93;;
31112;SDS011;17763;48.730;9.136;2024-03-02T03:42:57;18.35;;;13.68;;
31112;SDS011;17763;48.730;9.136;2024-03-02T03:45:25;22.50;;;14.27;;
31112;SDS011;17763;48.730;9.136;2024-03-02T03:47:52;22.30;;;14.27;;
31112;SDS011;17763;48.730;9.136;2024-03-02T03:50:23;18.42;;;13.70;;
31112;SDS011;17763;48.730;9.136;2024-03-02T03:52:48;23.70;;;14.32;;
31112;SDS011;17763;48.730;9.136;2024-03-02T03:55:14;21.15;;;14.10;;
31112;SDS011;17763;48.730;9.136;2024-03-02T03:57:40;24.85;;;15.98;;
31112;SDS011;17763;48.730;9.136;2024-03-02T04:00:06;22.85;;;15.50;;
31112;SDS011;17763;48.730;9.136;2024-03-02T04:02:35;20.73;;;14.70;;
31112;SDS011;17763;48.730;9.136;2024-03-02T04:05:01;22.67;;;14.95;;
31112;SDS011;17763;48.730;9.136;2024-03-02T04:07:33;20.42;;;14.10;;
31112;SDS011;17763;48.730;9.136;2024-03-02T04:10:05;19.40;;;13.48;;
31112;SDS011;17763;48.730;9.136;2024-03-02T04:12:36;25.33;;;15.77;;
31112;SDS011;17763;48.730;9.136;2024-03-02T04:15:04;22.77;;;14.40;;
31112;SDS011;17763;48.730;9.136;2024-03-02T04:17:32;24.02;;;14.75;;
31112;SDS011;17763;48.730;9.136;2024-03-02T04:19:58;22.33;;;14.98;;
31112;SDS011;17763;48.730;9.136;2024-03-02T04:22:27;21.35;;;14.10;;
31112;SDS011;17763;48.730;9.136;2024-03-02T04:24:53;21.38;;;14.52;;
31112;SDS011;17763;48.730;9.136;2024-03-02T04:27:19;25.20;;;16.33;;
31112;SDS011;17763;48.730;9.136;2024-03-02T04:29:44;21.13;;;13.93;;
31112;SDS011;17763;48.730;9.136;2024-03-02T04:32:12;20.45;;;14.52;;
31112;SDS011;17763;48.730;9.136;2024-03-02T04:34:38;25.55;;;15.13;;
31112;SDS011;17763;48.730;9.136;2024-03-02T04:37:03;23.23;;;15.75;;
31112;SDS011;17763;48.730;9.136;2024-03-02T04:39:29;22.00;;;15.15;;
31112;SDS011;17763;48.730;9.136;2024-03-02T04:41:55;19.00;;;13.68;;
31112;SDS011;17763;48.730;9.136;2024-03-02T04:44:20;21.02;;;14.60;;
31112;SDS011;17763;48.730;9.136;2024-03-02T04:46:46;20.70;;;14.35;;
31112;SDS011;17763;48.730;9.136;2024-03-02T04:49:11;22.98;;;14.23;;
31112;SDS011;17763;48.730;9.136;2024-03-02T04:51:37;21.60;;;14.00;;
31112;SDS011;17763;48.730;9.136;2024-03-02T04:54:02;20.95;;;14.25;;
31112;SDS011;17763;48.730;9.136;2024-03-02T04:56:28;21.80;;;14.75;;
31112;SDS011;17763;48.730;9.136;2024-03-02T04:58:56;19.33;;;14.65;;
31112;SDS011;17763;48.730;9.136;2024-03-02T05:01:22;20.48;;;13.85;;
31112;SDS011;17763;48.730;9.136;2024-03-02T05:03:48;20.20;;;14.02;;
31112;SDS011;17763;48.730;9.136;2024-03-02T05:06:13;23.27;;;14.75;;
31112;SDS011;17763;48.730;9.136;2024-03-02T05:08:39;22.08;;;13.88;;
31112;SDS011;17763;48.730;9.136;2024-03-02T05:11:04;23.17;;;14.05;;
31112;SDS011;17763;48.730;9.136;2024-03-02T05:13:49;18.98;;;13.65;;
31112;SDS011;17763;48.730;9.136;2024-03-02T05:16:14;21.40;;;14.40;;
31112;SDS011;17763;48.730;9.136;2024-03-02T05:18:40;23.23;;;14.82;;
31112;SDS011;17763;48.730;9.136;2024-03-02T05:21:06;21.10;;;14.50;;
31112;SDS011;17763;48.730;9.136;2024-03-02T05:23:31;22.13;;;14.75;;
31112;SDS011;17763;48.730;9.136;2024-03-02T05:25:57;19.15;;;14.00;;
31112;SDS011;17763;48.730;9.136;2024-03-02T05:28:22;18.88;;;13.90;;
31112;SDS011;17763;48.730;9.136;2024-03-02T05:30:48;20.65;;;13.43;;
31112;SDS011;17763;48.730;9.136;2024-03-02T05:33:14;22.13;;;14.82;;
31112;SDS011;17763;48.730;9.136;2024-03-02T05:35:40;25.42;;;15.68;;
31112;SDS011;17763;48.730;9.136;2024-03-02T05:38:05;24.75;;;14.73;;
31112;SDS011;17763;48.730;9.136;2024-03-02T05:40:33;22.52;;;15.15;;
31112;SDS011;17763;48.730;9.136;2024-03-02T05:42:59;24.25;;;15.20;;
31112;SDS011;17763;48.730;9.136;2024-03-02T05:45:24;23.27;;;14.98;;
31112;SDS011;17763;48.730;9.136;2024-03-02T05:47:50;22.27;;;15.32;;
31112;SDS011;17763;48.730;9.136;2024-03-02T05:50:16;23.85;;;15.23;;
31112;SDS011;17763;48.730;9.136;2024-03-02T05:52:41;25.25;;;15.35;;
31112;SDS011;17763;48.730;9.136;2024-03-02T05:55:07;26.30;;;16.23;;
31112;SDS011;17763;48.730;9.136;2024-03-02T05:57:32;24.83;;;15.45;;
31112;SDS011;17763;48.730;9.136;2024-03-02T06:00:26;22.40;;;15.43;;
31112;SDS011;17763;48.730;9.136;2024-03-02T06:02:52;24.63;;;15.10;;
31112;SDS011;17763;48.730;9.136;2024-03-02T06:05:17;22.95;;;15.38;;
31112;SDS011;17763;48.730;9.136;2024-03-02T06:07:43;20.52;;;14.48;;
31112;SDS011;17763;48.730;9.136;2024-03-02T06:10:09;22.98;;;13.82;;
31112;SDS011;17763;48.730;9.136;2024-03-02T06:12:36;21.45;;;14.75;;
31112;SDS011;17763;48.730;9.136;2024-03-02T06:15:02;27.23;;;16.38;;
31112;SDS011;17763;48.730;9.136;2024-03-02T06:17:28;20.55;;;13.98;;
31112;SDS011;17763;48.730;9.136;2024-03-02T06:19:56;24.98;;;15.35;;
31112;SDS011;17763;48.730;9.136;2024-03-02T06:22:25;22.38;;;14.80;;
31112;SDS011;17763;48.730;9.136;2024-03-02T06:24:50;24.05;;;14.90;;
31112;SDS011;17763;48.730;9.136;2024-03-02T06:27:16;23.00;;;14.77;;
31112;SDS011;17763;48.730;9.136;2024-03-02T06:29:42;22.92;;;14.55;;
31112;SDS011;17763;48.730;9.136;2024-03-02T06:32:07;21.90;;;14.73;;
31112;SDS011;17763;48.730;9.136;2024-03-02T06:34:33;25.48;;;16.40;;
31112;SDS011;17763;48.730;9.136;2024-03-02T06:36:59;25.60;;;16.35;;
31112;SDS011;17763;48.730;9.136;2024-03-02T06:39:25;22.55;;;14.80;;
31112;SDS011;17763;48.730;9.136;2024-03-02T06:41:51;25.35;;;14.75;;
31112;SDS011;17763;48.730;9.136;2024-03-02T06:44:19;24.80;;;15.35;;
31112;SDS011;17763;48.730;9.136;2024-03-02T06:46:46;22.17;;;14.65;;
31112;SDS011;17763;48.730;9.136;2024-03-02T06:49:11;20.92;;;14.45;;
31112;SDS011;17763;48.730;9.136;2024-03-02T06:51:37;19.92;;;13.35;;
31112;SDS011;17763;48.730;9.136;2024-03-02T06:54:03;23.42;;;15.65;;
31112;SDS011;17763;48.730;9.136;2024-03-02T06:56:28;22.23;;;13.73;;
31112;SDS011;17763;48.730;9.136;2024-03-02T06:58:54;21.00;;;14.30;;
31112;SDS011;17763;48.730;9.136;2024-03-02T07:01:19;19.80;;;14.13;;
31112;SDS011;17763;48.730;9.136;2024-03-02T07:03:45;21.33;;;14.40;;
31112;SDS011;17763;48.730;9.136;2024-03-02T07:06:11;21.45;;;13.82;;
31112;SDS011;17763;48.730;9.136;2024-03-02T07:08:36;21.77;;;13.93;;
31112;SDS011;17763;48.730;9.136;2024-03-02T07:11:02;22.20;;;13.43;;
31112;SDS011;17763;48.730;9.136;2024-03-02T07:13:28;20.90;;;14.32;;
31112;SDS011;17763;48.730;9.136;2024-03-02T07:15:53;19.65;;;13.70;;
31112;SDS011;17763;48.730;9.136;2024-03-02T07:18:28;17.92;;;12.48;;
31112;SDS011;17763;48.730;9.136;2024-03-02T07:20:55;19.60;;;13.00;;
31112;SDS011;17763;48.730;9.136;2024-03-02T07:23:26;18.25;;;13.00;;
31112;SDS011;17763;48.730;9.136;2024-03-02T07:25:55;18.88;;;12.57;;
31112;SDS011;17763;48.730;9.136;2024-03-02T07:28:25;20.33;;;13.25;;
31112;SDS011;17763;48.730;9.136;2024-03-02T07:31:00;17.38;;;11.95;;
31112;SDS011;17763;48.730;9.136;2024-03-02T07:33:27;18.77;;;12.77;;
31112;SDS011;17763;48.730;9.136;2024-03-02T07:35:55;17.58;;;12.93;;
31112;SDS011;17763;48.730;9.136;2024-03-02T07:38:22;16.42;;;11.63;;
31112;SDS011;17763;48.730;9.136;2024-03-02T07:40:48;17.17;;;12.45;;
31112;SDS011;17763;48.730;9.136;2024-03-02T07:43:18;18.73;;;12.60;;
31112;SDS011;17763;48.730;9.136;2024-03-02T07:45:47;19.42;;;12.68;;
31112;SDS011;17763;48.730;9.136;2024-03-02T07:48:13;18.83;;;12.18;;
31112;SDS011;17763;48.730;9.136;2024-03-02T07:50:39;14.55;;;11.05;;
31112;SDS011;17763;48.730;9.136;2024-03-02T07:53:05;14.55;;;11.50;;
31112;SDS011;17763;48.730;9.136;2024-03-02T07:55:35;16.77;;;11.73;;
31112;SDS011;17763;48.730;9.136;2024-03-02T07:58:00;16.08;;;11.23;;
31112;SDS011;17763;48.730;9.136;2024-03-02T08:00:26;16.73;;;10.80;;
31112;SDS011;17763;48.730;9.136;2024-03-02T08:02:55;14.65;;;10.45;;
31112;SDS011;17763;48.730;9.136;2024-03-02T08:05:21;14.32;;;10.27;;
31112;SDS011;17763;48.730;9.136;2024-03-02T08:07:48;16.83;;;10.85;;
31112;SDS011;17763;48.730;9.136;2024-03-02T08:12:45;13.88;;;10.20;;
31112;SDS011;17763;48.730;9.136;2024-03-02T08:15:11;13.43;;;9.85;;
31112;SDS011;17763;48.730;9.136;2024-03-02T08:17:39;16.02;;;11.15;;
31112;SDS011;17763;48.730;9.136;2024-03-02T08:20:10;12.27;;;10.23;;
31112;SDS011;17763;48.730;9.136;2024-03-02T08:22:36;12.18;;;9.77;;
31112;SDS011;17763;48.730;9.136;2024-03-02T08:25:02;14.90;;;10.80;;
31112;SDS011;17763;48.730;9.136;2024-03-02T08:27:28;15.50;;;9.77;;
31112;SDS011;17763;48.730;9.136;2024-03-02T08:29:54;12.43;;;9.80;;
31112;SDS011;17763;48.730;9.136;2024-03-02T08:32:19;12.13;;;9.75;;
31112;SDS011;17763;48.730;9.136;2024-03-02T08:34:45;13.65;;;9.40;;
31112;SDS011;17763;48.730;9.136;2024-03-02T08:37:11;13.55;;;10.23;;
31112;SDS011;17763;48.730;9.136;2024-03-02T08:39:38;13.13;;;9.48;;
31112;SDS011;17763;48.730;9.136;2024-03-02T08:42:04;11.00;;;9.10;;
31112;SDS011;17763;48.730;9.136;2024-03-02T08:44:30;13.23;;;9.90;;
31112;SDS011;17763;48.730;9.136;2024-03-02T08:46:56;12.25;;;9.38;;
31112;SDS011;17763;48.730;9.136;2024-03-02T08:49:21;11.52;;;9.30;;
31112;SDS011;17763;48.730;9.136;2024-03-02T08:51:47;13.73;;;9.75;;
31112;SDS011;17763;48.730;9.136;2024-03-02T08:54:19;10.00;;;8.20;;
31112;SDS011;17763;48.730;9.136;2024-03-02T08:56:46;11.05;;;9.27;;
31112;SDS011;17763;48.730;9.136;2024-03-02T08:59:12;11.10;;;8.38;;
31112;SDS011;17763;48.730;9.136;2024-03-02T09:01:40;10.20;;;9.10;;
31112;SDS011;17763;48.730;9.136;2024-03-02T09:04:06;13.25;;;8.85;;
31112;SDS011;17763;48.730;9.136;2024-03-02T09:06:33;9.95;;;8.77;;
31112;SDS011;17763;48.730;9.136;2024-03-02T09:08:59;12.82;;;8.90;;
31112;SDS011;17763;48.730;9.136;2024-03-02T09:11:25;11.75;;;8.57;;
31112;SDS011;17763;48.730;9.136;2024-03-02T09:13:51;10.50;;;7.97;;
31112;SDS011;17763;48.730;9.136;2024-03-02T09:16:18;10.52;;;8.18;;
31112;SDS011;17763;48.730;9.136;2024-03-02T09:18:43;9.13;;;7.93;;
31112;SDS011;17763;48.730;9.136;2024-03-02T09:21:09;7.75;;;6.90;;
31112;SDS011;17763;48.730;9.136;2024-03-02T09:23:35;7.18;;;5.78;;
31112;SDS011;17763;48.730;9.136;2024-03-02T09:26:00;6.95;;;6.13;;
31112;SDS011;17763;48.730;9.136;2024-03-02T09:28:26;8.02;;;6.50;;
31112;SDS011;17763;48.730;9.136;2024-03-02T09:30:51;5.70;;;5.07;;
31112;SDS011;17763;48.730;9.136;2024-03-02T09:33:17;6.22;;;5.60;;
31112;SDS011;17763;48.730;9.136;2024-03-02T09:35:43;7.40;;;5.40;;
31112;SDS011;17763;48.730;9.136;2024-03-02T09:38:08;7.00;;;5.57;;
31112;SDS011;17763;48.730;9.136;2024-03-02T09:40:36;7.95;;;5.60;;
31112;SDS011;17763;48.730;9.136;2024-03-02T09:43:02;9.57;;;5.47;;
31112;SDS011;17763;48.730;9.136;2024-03-02T09:45:28;5.68;;;5.18;;
31112;SDS011;17763;48.730;9.136;2024-03-02T09:47:55;7.15;;;6.45;;
31112;SDS011;17763;48.730;9.136;2024-03-02T09:50:21;5.25;;;4.72;;
31112;SDS011;17763;48.730;9.136;2024-03-02T09:52:48;5.55;;;5.00;;
31112;SDS011;17763;48.730;9.136;2024-03-02T09:55:15;5.43;;;4.93;;
31112;SDS011;17763;48.730;9.136;2024-03-02T09:57:43;5.18;;;4.68;;
31112;SDS011;17763;48.730;9.136;2024-03-02T10:00:11;5.75;;;5.20;;
31112;SDS011;17763;48.730;9.136;2024-03-02T10:02:40;5.68;;;5.00;;
31112;SDS011;17763;48.730;9.136;2024-03-02T10:05:06;4.75;;;4.32;;
31112;SDS011;17763;48.730;9.136;2024-03-02T10:07:36;6.07;;;4.43;;
31112;SDS011;17763;48.730;9.136;2024-03-02T10:10:15;5.22;;;4.82;;
31112;SDS011;17763;48.730;9.136;2024-03-02T10:12:41;4.85;;;4.40;;
31112;SDS011;17763;48.730;9.136;2024-03-02T10:15:07;4.68;;;4.28;;
31112;SDS011;17763;48.730;9.136;2024-03-02T10:17:34;4.50;;;4.10;;
31112;SDS011;17763;48.730;9.136;2024-03-02T10:20:04;4.13;;;3.80;;
31112;SDS011;17763;48.730;9.136;2024-03-02T10:22:49;5.00;;;4.47;;
31112;SDS011;17763;48.730;9.136;2024-03-02T10:25:28;4.68;;;4.28;;
31112;SDS011;17763;48.730;9.136;2024-03-02T10:27:57;4.05;;;3.70;;
31112;SDS011;17763;48.730;9.136;2024-03-02T10:30:24;5.18;;;3.95;;
31112;SDS011;17763;48.730;9.136;2024-03-02T10:32:50;4.15;;;3.63;;
31112;SDS011;17763;48.730;9.136;2024-03-02T10:35:17;3.00;;;2.80;;
31112;SDS011;17763;48.730;9.136;2024-03-02T10:37:44;3.85;;;2.78;;
31112;SDS011;17763;48.730;9.136;2024-03-02T10:40:12;3.50;;;2.60;;
31112;SDS011;17763;48.730;9.136;2024-03-02T10:42:39;3.25;;;3.05;;
31112;SDS011;17763;48.730;9.136;2024-03-02T10:45:06;3.33;;;3.03;;
31112;SDS011;17763;48.730;9.136;2024-03-02T10:47:37;2.70;;;2.50;;
31112;SDS011;17763;48.730;9.136;2024-03-02T10:50:06;2.75;;;2.55;;
31112;SDS011;17763;48.730;9.136;2024-03-02T10:52:36;3.53;;;2.50;;
31112;SDS011;17763;48.730;9.136;2024-03-02T10:55:05;3.20;;;2.90;;
31112;SDS011;17763;48.730;9.136;2024-03-02T10:57:53;2.42;;;2.22;;
31112;SDS011;17763;48.730;9.136;2024-03-02T11:00:19;4.15;;;3.10;;
31112;SDS011;17763;48.730;9.136;2024-03-02T11:03:00;5.35;;;3.40;;
31112;SDS011;17763;48.730;9.136;2024-03-02T11:05:36;3.67;;;3.15;;
31112;SDS011;17763;48.730;9.136;2024-03-02T11:08:06;3.85;;;3.50;;
31112;SDS011;17763;48.730;9.136;2024-03-02T11:10:37;3.90;;;3.40;;
31112;SDS011;17763;48.730;9.136;2024-03-02T11:13:11;3.75;;;3.40;;
31112;SDS011;17763;48.730;9.136;2024-03-02T11:15:37;4.15;;;3.03;;
31112;SDS011;17763;48.730;9.136;2024-03-02T11:18:05;3.38;;;3.08;;
31112;SDS011;17763;48.730;9.136;2024-03-02T11:20:35;2.67;;;2.47;;
31112;SDS011;17763;48.730;9.136;2024-03-02T11:23:07;2.90;;;2.70;;
31112;SDS011;17763;48.730;9.136;2024-03-02T11:25:33;3.28;;;2.70;;
31112;SDS011;17763;48.730;9.136;2024-03-02T11:28:00;3.53;;;2.58;;
31112;SDS011;17763;48.730;9.136;2024-03-02T11:33:01;1.80;;;1.70;;
31112;SDS011;17763;48.730;9.136;2024-03-02T11:35:34;2.00;;;1.90;;
31112;SDS011;17763;48.730;9.136;2024-03-02T11:38:06;3.33;;;1.63;;
31112;SDS011;17763;48.730;9.136;2024-03-02T11:40:32;2.17;;;1.98;;
31112;SDS011;17763;48.730;9.136;2024-03-02T11:42:59;2.40;;;2.20;;
31112;SDS011;17763;48.730;9.136;2024-03-02T11:45:25;4.68;;;3.50;;
31112;SDS011;17763;48.730;9.136;2024-03-02T11:47:55;3.00;;;2.55;;
31112;SDS011;17763;48.730;9.136;2024-03-02T11:53:09;2.25;;;1.92;;
31112;SDS011;17763;48.730;9.136;2024-03-02T11:55:37;2.08;;;1.85;;
31112;SDS011;17763;48.730;9.136;2024-03-02T11:58:04;1.38;;;1.27;;
31112;SDS011;17763;48.730;9.136;2024-03-02T12:00:30;1.45;;;1.20;;
31112;SDS011;17763;48.730;9.136;2024-03-02T12:03:04;5.55;;;1.15;;
31112;SDS011;17763;48.730;9.136;2024-03-02T12:05:37;2.28;;;1.60;;
31112;SDS011;17763;48.730;9.136;2024-03-02T12:08:04;1.48;;;1.40;;
31112;SDS011;17763;48.730;9.136;2024-03-02T12:10:31;1.48;;;1.38;;
31112;SDS011;17763;48.730;9.136;2024-03-02T12:13:01;1.48;;;1.38;;
31112;SDS011;17763;48.730;9.136;2024-03-02T12:15:36;1.30;;;1.20;;
31112;SDS011;17763;48.730;9.136;2024-03-02T12:18:03;1.15;;;0.98;;
31112;SDS011;17763;48.730;9.136;2024-03-02T12:20:30;2.90;;;1.60;;
31112;SDS011;17763;48.730;9.136;2024-03-02T12:23:01;1.27;;;1.17;;
31112;SDS011;17763;48.730;9.136;2024-03-02T12:25:30;8.15;;;1.85;;
31112;SDS011;17763;48.730;9.136;2024-03-02T12:27:57;3.38;;;2.97;;
31112;SDS011;17763;48.730;9.136;2024-03-02T12:30:26;4.75;;;4.25;;
31112;SDS011;17763;48.730;9.136;2024-03-02T12:32:54;2.42;;;2.22;;
31112;SDS011;17763;48.730;9.136;2024-03-02T12:35:19;2.38;;;1.67;;
31112;SDS011;17763;48.730;9.136;2024-03-02T12:37:49;3.67;;;2.63;;
31112;SDS011;17763;48.730;9.136;2024-03-02T12:40:18;2.42;;;2.22;;
31112;SDS011;17763;48.730;9.136;2024-03-02T12:42:45;1.60;;;1.50;;
31112;SDS011;17763;48.730;9.136;2024-03-02T12:45:11;1.42;;;1.20;;
31112;SDS011;17763;48.730;9.136;2024-03-02T12:47:39;1.60;;;1.50;;
31112;SDS011;17763;48.730;9.136;2024-03-02T12:50:06;2.15;;;1.55;;
31112;SDS011;17763;48.730;9.136;2024-03-02T12:52:32;1.98;;;1.60;;
31112;SDS011;17763;48.730;9.136;2024-03-02T12:54:59;1.65;;;1.55;;
31112;SDS011;17763;48.730;9.136;2024-03-02T12:57:28;4.10;;;1.70;;
31112;SDS011;17763;48.730;9.136;2024-03-02T13:00:00;1.88;;;1.67;;
31112;SDS011;17763;48.730;9.136;2024-03-02T13:02:34;2.22;;;1.48;;
31112;SDS011;17763;48.730;9.136;2024-03-02T13:05:01;2.78;;;1.77;;
31112;SDS011;17763;48.730;9.136;2024-03-02T13:07:27;2.20;;;2.00;;
31112;SDS011;17763;48.730;9.136;2024-03-02T13:09:54;2.40;;;1.88;;
31112;SDS011;17763;48.730;9.136;2024-03-02T13:12:20;1.88;;;1.70;;
31112;SDS011;17763;48.730;9.136;2024-03-02T13:14:49;3.08;;;2.10;;
31112;SDS011;17763;48.730;9.136;2024-03-02T13:17:18;2.78;;;2.15;;
31112;SDS011;17763;48.730;9.136;2024-03-02T13:19:53;4.20;;;3.03;;
31112;SDS011;17763;48.730;9.136;2024-03-02T13:22:20;3.28;;;2.20;;
31112;SDS011;17763;48.730;9.136;2024-03-02T13:24:49;2.83;;;2.20;;
31112;SDS011;17763;48.730;9.136;2024-03-02T13:27:15;2.03;;;1.83;;
31112;SDS011;17763;48.730;9.136;2024-03-02T13:29:41;2.00;;;1.40;;
31112;SDS011;17763;48.730;9.136;2024-03-02T13:32:07;1.90;;;1.52;;
31112;SDS011;17763;48.730;9.136;2024-03-02T13:34:34;1.50;;;1.40;;
31112;SDS011;17763;48.730;9.136;2024-03-02T13:37:01;1.95;;;1.77;;
31112;SDS011;17763;48.730;9.136;2024-03-02T13:39:27;1.67;;;1.30;;
31112;SDS011;17763;48.730;9.136;2024-03-02T13:41:58;2.20;;;2.00;;
31112;SDS011;17763;48.730;9.136;2024-03-02T13:44:29;1.60;;;1.50;;
31112;SDS011;17763;48.730;9.136;2024-03-02T13:46:59;2.05;;;1.67;;
31112;SDS011;17763;48.730;9.136;2024-03-02T13:49:27;1.50;;;1.40;;
31112;SDS011;17763;48.730;9.136;2024-03-02T13:51:58;1.90;;;1.58;;
31112;SDS011;17763;48.730;9.136;2024-03-02T13:54:25;2.40;;;1.88;;
31112;SDS011;17763;48.730;9.136;2024-03-02T13:56:51;2.00;;;1.63;;
31112;SDS011;17763;48.730;9.136;2024-03-02T13:59:17;2.03;;;1.33;;
31112;SDS011;17763;48.730;9.136;2024-03-02T14:01:43;1.25;;;1.17;;
31112;SDS011;17763;48.730;9.136;2024-03-02T14:04:09;2.40;;;1.25;;
31112;SDS011;17763;48.730;9.136;2024-03-02T14:06:35;1.30;;;1.20;;
31112;SDS011;17763;48.730;9.136;2024-03-02T14:09:00;2.17;;;1.45;;
31112;SDS011;17763;48.730;9.136;2024-03-02T14:11:26;1.60;;;1.50;;
31112;SDS011;17763;48.730;9.136;2024-03-02T14:13:52;1.90;;;1.33;;
31112;SDS011;17763;48.730;9.136;2024-03-02T14:16:19;1.63;;;1.02;;
31112;SDS011;17763;48.730;9.136;2024-03-02T14:18:45;1.30;;;1.20;;
31112;SDS011;17763;48.730;9.136;2024-03-02T14:21:11;1.60;;;1.45;;
31112;SDS011;17763;48.730;9.136;2024-03-02T14:23:37;2.15;;;1.02;;
31112;SDS011;17763;48.730;9.136;2024-03-02T14:26:05;1.15;;;0.95;;
31112;SDS011;17763;48.730;9.136;2024-03-02T14:28:31;1.17;;;1.08;;
31112;SDS011;17763;48.730;9.136;2024-03-02T14:30:56;1.15;;;1.05;;
31112;SDS011;17763;48.730;9.136;2024-03-02T14:33:23;1.92;;;1.10;;
31112;SDS011;17763;48.730;9.136;2024-03-02T14:35:49;2.58;;;2.33;;
31112;SDS011;17763;48.730;9.136;2024-03-02T14:38:15;2.55;;;2.35;;
31112;SDS011;17763;48.730;9.136;2024-03-02T14:40:40;1.58;;;1.15;;
31112;SDS011;17763;48.730;9.136;2024-03-02T14:43:06;1.75;;;1.50;;
31112;SDS011;17763;48.730;9.136;2024-03-02T14:45:31;1.50;;;1.02;;
31112;SDS011;17763;48.730;9.136;2024-03-02T14:48:02;1.20;;;0.98;;
31112;SDS011;17763;48.730;9.136;2024-03-02T14:50:30;1.30;;;1.17;;
31112;SDS011;17763;48.730;9.136;2024-03-02T14:52:55;0.90;;;0.90;;